Iwakuni Marine Corps Air Station
RJOI : now visible

Airfield :











YOU CAN JOIN US ON...

 
LOGIN :

Register | Disclaimer

   EN    FR    IT 

 









Legend :    VFR   Marginal VFR   IFR   Intensive IFR   Very Intensive IFR
Visi :
Ceiling :
>= 8 km
>= 3000ft
5 to 8 km
1000 to 3000 ft
1500m to 5 km
500 to 1000 ft
800 to 1500m
200 to 500 ft
< 800m
< 200 ft
Symbols :   Thunderstorms  Fog  Heavy snow  Heavy precipitations  Wind > 20 kt







- Airport Elevation : 7 ft


RJOI - Iwakuni Marine Corps Air Station

CURRENT METAR :
  • 211355Z 00000KT 9999 FEW040 BKN080 BKN210 18/12 A2990 RMK SLP126 T01830117

EXPIRED METARs :
  • 211255Z 29006KT 9999 FEW040 BKN080 BKN210 20/10 A2990 RMK SLP126 T02000100
  • 211155Z 09005KT 9999 BKN080 BKN210 18/11 A2990 RMK SLP123 T01830111 10239 20183 52027

TAF TAF RJOI
Valid from the 21 at 13:00 until the 22 at 13:00 UTC


2113/2213 31005KT 9999 FEW030 BKN080 BKN120 OVC180 621203 QNH2989INS
FM212000 31005KT 9999 FEW030 BKN060 BKN120 OVC200 621203 QNH2990INS
BECMG 2200/2201 06007KT 9999 FEW030 FEW120 BKN230 600000 QNH2993INS
FM220330 15010KT 9999 FEW035 FEW230 QNH2992INS
BECMG 2209/2210 VRB05KT 9999 FEW035 FEW240 QNH2994INS T15/2121Z T25/2206Z
RJJJ FIR / Asia



MET'MAP, your aeronautical weather chart ! - Copyright ORBIFLY December 2007 - Disclaimer

ORBIFLY MET'MAP TEAM :

Programming & Development : Alexandra Zaïnal
Concept & Development : Baudouin d'Aumeries
Co-Development & Prog : Marc-Olivier Méhu
Technical & hardware support : Manuel Goepfert

Contact : metmap@orbifly.com




SOURCES & CREDITS :

   NOAA       Earth
Advisory